sensor_id;sensor_type;location;lat;lon;timestamp;P1;durP1;ratioP1;P2;durP2;ratioP2
70592;SDS011;58294;42.988;20.338;2022-09-29T00:01:11;139.27;;;107.03;;
70592;SDS011;58294;42.988;20.338;2022-09-29T00:03:37;22.45;;;14.30;;
70592;SDS011;58294;42.988;20.338;2022-09-29T00:06:03;26.27;;;17.13;;
70592;SDS011;58294;42.988;20.338;2022-09-29T00:08:37;76.88;;;55.50;;
70592;SDS011;58294;42.988;20.338;2022-09-29T00:11:06;32.60;;;24.92;;
70592;SDS011;58294;42.988;20.338;2022-09-29T00:13:33;31.60;;;18.98;;
70592;SDS011;58294;42.988;20.338;2022-09-29T00:15:59;33.10;;;21.48;;
70592;SDS011;58294;42.988;20.338;2022-09-29T00:18:27;33.42;;;24.65;;
70592;SDS011;58294;42.988;20.338;2022-09-29T00:21:00;49.00;;;32.75;;
70592;SDS011;58294;42.988;20.338;2022-09-29T00:23:29;62.10;;;40.50;;
70592;SDS011;58294;42.988;20.338;2022-09-29T00:26:00;28.92;;;19.50;;
70592;SDS011;58294;42.988;20.338;2022-09-29T00:28:27;25.52;;;16.85;;
70592;SDS011;58294;42.988;20.338;2022-09-29T00:30:54;21.35;;;13.15;;
70592;SDS011;58294;42.988;20.338;2022-09-29T00:33:19;21.10;;;14.38;;
70592;SDS011;58294;42.988;20.338;2022-09-29T00:35:54;23.83;;;14.18;;
70592;SDS011;58294;42.988;20.338;2022-09-29T00:38:22;20.13;;;11.65;;
70592;SDS011;58294;42.988;20.338;2022-09-29T00:40:48;14.63;;;9.88;;
70592;SDS011;58294;42.988;20.338;2022-09-29T00:43:18;13.68;;;7.60;;
70592;SDS011;58294;42.988;20.338;2022-09-29T00:45:47;15.00;;;8.35;;
70592;SDS011;58294;42.988;20.338;2022-09-29T00:48:15;15.20;;;8.18;;
70592;SDS011;58294;42.988;20.338;2022-09-29T00:50:47;13.00;;;8.80;;
70592;SDS011;58294;42.988;20.338;2022-09-29T00:53:16;12.48;;;8.23;;
70592;SDS011;58294;42.988;20.338;2022-09-29T00:55:45;12.93;;;8.52;;
70592;SDS011;58294;42.988;20.338;2022-09-29T01:01:01;21.05;;;10.43;;
70592;SDS011;58294;42.988;20.338;2022-09-29T01:03:30;19.27;;;11.77;;
70592;SDS011;58294;42.988;20.338;2022-09-29T01:06:12;14.65;;;10.32;;
70592;SDS011;58294;42.988;20.338;2022-09-29T01:08:46;14.95;;;9.35;;
70592;SDS011;58294;42.988;20.338;2022-09-29T01:11:17;20.42;;;12.18;;
70592;SDS011;58294;42.988;20.338;2022-09-29T01:13:45;16.23;;;9.15;;
70592;SDS011;58294;42.988;20.338;2022-09-29T01:16:12;13.15;;;9.07;;
70592;SDS011;58294;42.988;20.338;2022-09-29T01:18:38;16.08;;;8.90;;
70592;SDS011;58294;42.988;20.338;2022-09-29T01:21:16;9.55;;;7.63;;
70592;SDS011;58294;42.988;20.338;2022-09-29T01:37:54;12.35;;;10.07;;
70592;SDS011;58294;42.988;20.338;2022-09-29T01:40:42;12.05;;;9.00;;
70592;SDS011;58294;42.988;20.338;2022-09-29T01:43:27;14.02;;;8.73;;
70592;SDS011;58294;42.988;20.338;2022-09-29T01:46:10;18.05;;;10.48;;
70592;SDS011;58294;42.988;20.338;2022-09-29T01:48:48;16.10;;;9.65;;
70592;SDS011;58294;42.988;20.338;2022-09-29T01:51:18;14.48;;;8.82;;
70592;SDS011;58294;42.988;20.338;2022-09-29T01:53:50;19.67;;;14.60;;
70592;SDS011;58294;42.988;20.338;2022-09-29T01:56:37;16.92;;;11.00;;
70592;SDS011;58294;42.988;20.338;2022-09-29T01:59:13;14.23;;;10.13;;
70592;SDS011;58294;42.988;20.338;2022-09-29T02:01:43;20.65;;;12.80;;
70592;SDS011;58294;42.988;20.338;2022-09-29T02:04:25;16.27;;;9.95;;
70592;SDS011;58294;42.988;20.338;2022-09-29T02:07:06;12.93;;;10.35;;
70592;SDS011;58294;42.988;20.338;2022-09-29T02:09:59;12.27;;;9.43;;
70592;SDS011;58294;42.988;20.338;2022-09-29T02:12:29;19.40;;;13.70;;
70592;SDS011;58294;42.988;20.338;2022-09-29T02:14:58;13.95;;;10.63;;
70592;SDS011;58294;42.988;20.338;2022-09-29T02:17:30;14.60;;;13.15;;
70592;SDS011;58294;42.988;20.338;2022-09-29T02:19:58;12.93;;;8.75;;
70592;SDS011;58294;42.988;20.338;2022-09-29T02:22:24;12.68;;;9.00;;
70592;SDS011;58294;42.988;20.338;2022-09-29T02:24:51;14.43;;;9.98;;
70592;SDS011;58294;42.988;20.338;2022-09-29T02:27:20;17.10;;;9.95;;
70592;SDS011;58294;42.988;20.338;2022-09-29T02:29:46;15.13;;;10.23;;
70592;SDS011;58294;42.988;20.338;2022-09-29T02:32:13;11.23;;;8.35;;
70592;SDS011;58294;42.988;20.338;2022-09-29T02:34:40;10.57;;;7.78;;
70592;SDS011;58294;42.988;20.338;2022-09-29T02:39:53;14.65;;;8.60;;
70592;SDS011;58294;42.988;20.338;2022-09-29T02:45:14;10.13;;;6.88;;
70592;SDS011;58294;42.988;20.338;2022-09-29T02:48:07;14.35;;;7.28;;
70592;SDS011;58294;42.988;20.338;2022-09-29T02:56:14;11.25;;;8.93;;
70592;SDS011;58294;42.988;20.338;2022-09-29T02:58:43;15.40;;;9.13;;
70592;SDS011;58294;42.988;20.338;2022-09-29T03:01:11;13.00;;;7.78;;
70592;SDS011;58294;42.988;20.338;2022-09-29T03:03:40;26.63;;;23.90;;
70592;SDS011;58294;42.988;20.338;2022-09-29T03:06:07;25.58;;;22.67;;
70592;SDS011;58294;42.988;20.338;2022-09-29T03:08:34;11.07;;;9.50;;
70592;SDS011;58294;42.988;20.338;2022-09-29T03:11:00;9.15;;;6.85;;
70592;SDS011;58294;42.988;20.338;2022-09-29T03:13:26;66.50;;;51.35;;
70592;SDS011;58294;42.988;20.338;2022-09-29T03:15:52;49.92;;;34.08;;
70592;SDS011;58294;42.988;20.338;2022-09-29T03:18:18;16.55;;;9.65;;
70592;SDS011;58294;42.988;20.338;2022-09-29T03:20:44;33.30;;;21.77;;
70592;SDS011;58294;42.988;20.338;2022-09-29T03:23:09;68.45;;;48.85;;
70592;SDS011;58294;42.988;20.338;2022-09-29T03:25:35;120.03;;;87.93;;
70592;SDS011;58294;42.988;20.338;2022-09-29T03:28:01;42.05;;;28.67;;
70592;SDS011;58294;42.988;20.338;2022-09-29T03:30:27;17.58;;;9.73;;
70592;SDS011;58294;42.988;20.338;2022-09-29T03:32:53;58.50;;;46.88;;
70592;SDS011;58294;42.988;20.338;2022-09-29T03:35:18;30.05;;;24.92;;
70592;SDS011;58294;42.988;20.338;2022-09-29T03:37:44;20.45;;;16.65;;
70592;SDS011;58294;42.988;20.338;2022-09-29T03:40:10;26.40;;;23.77;;
70592;SDS011;58294;42.988;20.338;2022-09-29T03:42:36;20.98;;;13.43;;
70592;SDS011;58294;42.988;20.338;2022-09-29T03:45:02;9.90;;;6.43;;
70592;SDS011;58294;42.988;20.338;2022-09-29T03:47:29;11.52;;;9.27;;
70592;SDS011;58294;42.988;20.338;2022-09-29T03:49:55;19.42;;;8.27;;
70592;SDS011;58294;42.988;20.338;2022-09-29T03:52:21;77.22;;;68.80;;
70592;SDS011;58294;42.988;20.338;2022-09-29T03:54:47;120.10;;;94.63;;
70592;SDS011;58294;42.988;20.338;2022-09-29T03:57:13;78.63;;;58.00;;
70592;SDS011;58294;42.988;20.338;2022-09-29T03:59:39;70.78;;;47.22;;
70592;SDS011;58294;42.988;20.338;2022-09-29T04:02:04;71.15;;;52.25;;
70592;SDS011;58294;42.988;20.338;2022-09-29T04:04:30;36.85;;;32.88;;
70592;SDS011;58294;42.988;20.338;2022-09-29T04:06:56;20.05;;;14.52;;
70592;SDS011;58294;42.988;20.338;2022-09-29T04:09:22;23.52;;;18.08;;
70592;SDS011;58294;42.988;20.338;2022-09-29T04:11:47;41.88;;;33.30;;
70592;SDS011;58294;42.988;20.338;2022-09-29T04:14:13;19.60;;;13.60;;
70592;SDS011;58294;42.988;20.338;2022-09-29T04:16:39;11.60;;;7.78;;
70592;SDS011;58294;42.988;20.338;2022-09-29T04:19:05;21.73;;;16.60;;
70592;SDS011;58294;42.988;20.338;2022-09-29T04:21:31;15.73;;;9.38;;
70592;SDS011;58294;42.988;20.338;2022-09-29T04:23:56;12.02;;;6.38;;
70592;SDS011;58294;42.988;20.338;2022-09-29T04:26:22;14.63;;;8.70;;
70592;SDS011;58294;42.988;20.338;2022-09-29T04:28:48;12.38;;;7.43;;
70592;SDS011;58294;42.988;20.338;2022-09-29T04:31:14;14.35;;;8.98;;
70592;SDS011;58294;42.988;20.338;2022-09-29T04:33:40;14.90;;;10.38;;
70592;SDS011;58294;42.988;20.338;2022-09-29T04:36:06;16.13;;;9.63;;
70592;SDS011;58294;42.988;20.338;2022-09-29T04:38:32;19.35;;;10.95;;
70592;SDS011;58294;42.988;20.338;2022-09-29T04:40:58;19.83;;;13.70;;
70592;SDS011;58294;42.988;20.338;2022-09-29T04:43:24;16.02;;;13.00;;
70592;SDS011;58294;42.988;20.338;2022-09-29T04:45:50;19.92;;;14.93;;
70592;SDS011;58294;42.988;20.338;2022-09-29T04:48:15;23.15;;;15.20;;
70592;SDS011;58294;42.988;20.338;2022-09-29T04:50:41;24.55;;;16.88;;
70592;SDS011;58294;42.988;20.338;2022-09-29T04:53:08;9.73;;;7.28;;
70592;SDS011;58294;42.988;20.338;2022-09-29T04:55:36;16.20;;;6.85;;
70592;SDS011;58294;42.988;20.338;2022-09-29T04:58:02;14.13;;;6.95;;
70592;SDS011;58294;42.988;20.338;2022-09-29T05:00:29;16.65;;;8.65;;
70592;SDS011;58294;42.988;20.338;2022-09-29T05:02:56;16.92;;;8.80;;
70592;SDS011;58294;42.988;20.338;2022-09-29T05:05:22;14.50;;;8.40;;
70592;SDS011;58294;42.988;20.338;2022-09-29T05:07:48;11.40;;;7.97;;
70592;SDS011;58294;42.988;20.338;2022-09-29T05:10:14;17.73;;;9.45;;
70592;SDS011;58294;42.988;20.338;2022-09-29T05:12:39;15.48;;;9.25;;
70592;SDS011;58294;42.988;20.338;2022-09-29T05:15:05;18.40;;;8.32;;
70592;SDS011;58294;42.988;20.338;2022-09-29T05:17:32;11.88;;;7.35;;
70592;SDS011;58294;42.988;20.338;2022-09-29T05:19:58;15.50;;;8.05;;
70592;SDS011;58294;42.988;20.338;2022-09-29T05:22:23;20.17;;;10.38;;
70592;SDS011;58294;42.988;20.338;2022-09-29T05:24:50;12.45;;;8.63;;
70592;SDS011;58294;42.988;20.338;2022-09-29T05:27:16;21.77;;;11.63;;
70592;SDS011;58294;42.988;20.338;2022-09-29T05:29:43;22.75;;;10.77;;
70592;SDS011;58294;42.988;20.338;2022-09-29T05:32:08;16.42;;;8.95;;
70592;SDS011;58294;42.988;20.338;2022-09-29T05:34:34;15.60;;;9.38;;
70592;SDS011;58294;42.988;20.338;2022-09-29T05:37:00;43.05;;;25.05;;
70592;SDS011;58294;42.988;20.338;2022-09-29T05:39:26;16.10;;;11.20;;
70592;SDS011;58294;42.988;20.338;2022-09-29T05:41:52;22.83;;;11.73;;
70592;SDS011;58294;42.988;20.338;2022-09-29T05:44:17;21.65;;;12.48;;
70592;SDS011;58294;42.988;20.338;2022-09-29T05:46:43;17.83;;;11.88;;
70592;SDS011;58294;42.988;20.338;2022-09-29T05:49:09;24.15;;;15.75;;
70592;SDS011;58294;42.988;20.338;2022-09-29T05:51:35;20.73;;;16.30;;
70592;SDS011;58294;42.988;20.338;2022-09-29T05:54:01;28.23;;;19.65;;
70592;SDS011;58294;42.988;20.338;2022-09-29T05:56:26;23.92;;;19.23;;
70592;SDS011;58294;42.988;20.338;2022-09-29T05:58:52;27.20;;;19.13;;
70592;SDS011;58294;42.988;20.338;2022-09-29T06:01:23;19.95;;;14.18;;
70592;SDS011;58294;42.988;20.338;2022-09-29T06:03:52;20.65;;;13.25;;
70592;SDS011;58294;42.988;20.338;2022-09-29T06:06:19;21.38;;;12.98;;
70592;SDS011;58294;42.988;20.338;2022-09-29T06:08:49;18.73;;;14.32;;
70592;SDS011;58294;42.988;20.338;2022-09-29T06:11:17;19.75;;;15.77;;
70592;SDS011;58294;42.988;20.338;2022-09-29T06:13:48;27.27;;;16.85;;
70592;SDS011;58294;42.988;20.338;2022-09-29T06:16:16;27.17;;;18.83;;
70592;SDS011;58294;42.988;20.338;2022-09-29T06:18:44;17.50;;;13.07;;
70592;SDS011;58294;42.988;20.338;2022-09-29T06:21:11;20.73;;;13.70;;
70592;SDS011;58294;42.988;20.338;2022-09-29T06:23:39;23.48;;;16.27;;
70592;SDS011;58294;42.988;20.338;2022-09-29T06:26:06;21.13;;;15.07;;
70592;SDS011;58294;42.988;20.338;2022-09-29T06:28:34;26.05;;;17.25;;
70592;SDS011;58294;42.988;20.338;2022-09-29T06:31:10;29.77;;;17.90;;
70592;SDS011;58294;42.988;20.338;2022-09-29T06:33:40;28.30;;;17.73;;
70592;SDS011;58294;42.988;20.338;2022-09-29T06:36:09;26.02;;;17.58;;
70592;SDS011;58294;42.988;20.338;2022-09-29T06:39:10;26.95;;;17.30;;
70592;SDS011;58294;42.988;20.338;2022-09-29T06:41:38;17.50;;;11.68;;
70592;SDS011;58294;42.988;20.338;2022-09-29T06:44:04;23.40;;;13.65;;
70592;SDS011;58294;42.988;20.338;2022-09-29T06:46:30;19.48;;;12.77;;
70592;SDS011;58294;42.988;20.338;2022-09-29T06:48:56;24.17;;;11.48;;
70592;SDS011;58294;42.988;20.338;2022-09-29T06:51:22;16.73;;;12.05;;
70592;SDS011;58294;42.988;20.338;2022-09-29T06:53:49;21.73;;;13.85;;
70592;SDS011;58294;42.988;20.338;2022-09-29T06:56:16;30.52;;;20.23;;
70592;SDS011;58294;42.988;20.338;2022-09-29T06:58:45;25.05;;;15.40;;
70592;SDS011;58294;42.988;20.338;2022-09-29T07:01:11;25.42;;;18.98;;
70592;SDS011;58294;42.988;20.338;2022-09-29T07:03:38;23.05;;;16.38;;
70592;SDS011;58294;42.988;20.338;2022-09-29T07:06:04;14.80;;;9.88;;
70592;SDS011;58294;42.988;20.338;2022-09-29T07:08:31;18.38;;;14.07;;
70592;SDS011;58294;42.988;20.338;2022-09-29T07:11:00;25.33;;;16.23;;
70592;SDS011;58294;42.988;20.338;2022-09-29T07:13:27;28.77;;;15.48;;
70592;SDS011;58294;42.988;20.338;2022-09-29T07:15:54;15.63;;;13.27;;
70592;SDS011;58294;42.988;20.338;2022-09-29T07:18:20;29.05;;;17.67;;
70592;SDS011;58294;42.988;20.338;2022-09-29T07:20:46;29.77;;;21.73;;
70592;SDS011;58294;42.988;20.338;2022-09-29T07:23:11;33.92;;;22.92;;
70592;SDS011;58294;42.988;20.338;2022-09-29T07:25:38;26.02;;;18.33;;
70592;SDS011;58294;42.988;20.338;2022-09-29T07:28:04;30.77;;;22.98;;
70592;SDS011;58294;42.988;20.338;2022-09-29T07:30:29;26.15;;;18.70;;
70592;SDS011;58294;42.988;20.338;2022-09-29T07:32:56;24.55;;;16.98;;
70592;SDS011;58294;42.988;20.338;2022-09-29T07:35:22;20.90;;;16.05;;
70592;SDS011;58294;42.988;20.338;2022-09-29T07:37:51;28.40;;;14.82;;
70592;SDS011;58294;42.988;20.338;2022-09-29T07:40:19;19.83;;;17.23;;
70592;SDS011;58294;42.988;20.338;2022-09-29T07:42:46;23.05;;;16.10;;
70592;SDS011;58294;42.988;20.338;2022-09-29T07:45:12;24.98;;;15.93;;
70592;SDS011;58294;42.988;20.338;2022-09-29T07:47:39;17.85;;;15.00;;
70592;SDS011;58294;42.988;20.338;2022-09-29T07:50:05;18.63;;;15.35;;
70592;SDS011;58294;42.988;20.338;2022-09-29T07:52:31;19.80;;;15.48;;
70592;SDS011;58294;42.988;20.338;2022-09-29T07:54:57;22.35;;;15.20;;
70592;SDS011;58294;42.988;20.338;2022-09-29T07:57:22;17.50;;;15.15;;
70592;SDS011;58294;42.988;20.338;2022-09-29T07:59:48;28.73;;;19.10;;
70592;SDS011;58294;42.988;20.338;2022-09-29T08:02:14;23.67;;;17.67;;
70592;SDS011;58294;42.988;20.338;2022-09-29T08:04:41;28.20;;;23.88;;
70592;SDS011;58294;42.988;20.338;2022-09-29T08:07:08;43.28;;;34.40;;
70592;SDS011;58294;42.988;20.338;2022-09-29T08:09:34;46.33;;;40.20;;
70592;SDS011;58294;42.988;20.338;2022-09-29T08:12:00;57.60;;;44.80;;
70592;SDS011;58294;42.988;20.338;2022-09-29T08:14:27;51.45;;;43.75;;
70592;SDS011;58294;42.988;20.338;2022-09-29T08:16:53;53.47;;;44.28;;
70592;SDS011;58294;42.988;20.338;2022-09-29T08:19:18;49.92;;;44.45;;
70592;SDS011;58294;42.988;20.338;2022-09-29T08:21:44;34.28;;;30.48;;
70592;SDS011;58294;42.988;20.338;2022-09-29T08:24:14;38.65;;;30.92;;
70592;SDS011;58294;42.988;20.338;2022-09-29T08:26:42;44.47;;;34.83;;
70592;SDS011;58294;42.988;20.338;2022-09-29T08:29:08;38.33;;;29.60;;
70592;SDS011;58294;42.988;20.338;2022-09-29T08:31:34;36.40;;;27.75;;
70592;SDS011;58294;42.988;20.338;2022-09-29T08:34:01;47.38;;;40.63;;
70592;SDS011;58294;42.988;20.338;2022-09-29T08:36:28;44.50;;;35.85;;
70592;SDS011;58294;42.988;20.338;2022-09-29T08:38:55;45.88;;;36.78;;
70592;SDS011;58294;42.988;20.338;2022-09-29T08:46:46;43.03;;;37.03;;
70592;SDS011;58294;42.988;20.338;2022-09-29T08:56:51;35.22;;;26.02;;
70592;SDS011;58294;42.988;20.338;2022-09-29T08:59:17;38.45;;;25.73;;
70592;SDS011;58294;42.988;20.338;2022-09-29T09:01:50;30.42;;;27.20;;
70592;SDS011;58294;42.988;20.338;2022-09-29T09:04:39;39.50;;;28.92;;
70592;SDS011;58294;42.988;20.338;2022-09-29T09:18:57;34.00;;;29.05;;
70592;SDS011;58294;42.988;20.338;2022-09-29T09:21:40;43.45;;;34.17;;
70592;SDS011;58294;42.988;20.338;2022-09-29T09:24:18;42.22;;;32.60;;
70592;SDS011;58294;42.988;20.338;2022-09-29T09:27:01;38.42;;;31.25;;
70592;SDS011;58294;42.988;20.338;2022-09-29T09:29:31;39.55;;;33.17;;
70592;SDS011;58294;42.988;20.338;2022-09-29T09:32:07;43.53;;;33.17;;
70592;SDS011;58294;42.988;20.338;2022-09-29T09:34:45;37.40;;;29.10;;
70592;SDS011;58294;42.988;20.338;2022-09-29T09:37:22;37.95;;;30.70;;
70592;SDS011;58294;42.988;20.338;2022-09-29T09:39:58;33.10;;;27.02;;
70592;SDS011;58294;42.988;20.338;2022-09-29T09:42:42;35.15;;;29.40;;
70592;SDS011;58294;42.988;20.338;2022-09-29T09:45:56;55.63;;;32.83;;
70592;SDS011;58294;42.988;20.338;2022-09-29T09:50:43;41.25;;;28.23;;
70592;SDS011;58294;42.988;20.338;2022-09-29T09:53:13;31.73;;;28.35;;
70592;SDS011;58294;42.988;20.338;2022-09-29T09:56:05;44.70;;;29.00;;
70592;SDS011;58294;42.988;20.338;2022-09-29T10:01:05;23.65;;;18.33;;
70592;SDS011;58294;42.988;20.338;2022-09-29T10:03:32;29.02;;;22.05;;
70592;SDS011;58294;42.988;20.338;2022-09-29T10:05:59;25.08;;;18.45;;
70592;SDS011;58294;42.988;20.338;2022-09-29T10:08:26;34.65;;;21.25;;
70592;SDS011;58294;42.988;20.338;2022-09-29T10:10:54;31.88;;;24.17;;
70592;SDS011;58294;42.988;20.338;2022-09-29T10:13:23;46.05;;;28.70;;
70592;SDS011;58294;42.988;20.338;2022-09-29T10:16:04;30.63;;;23.83;;
70592;SDS011;58294;42.988;20.338;2022-09-29T10:18:45;35.47;;;26.35;;
70592;SDS011;58294;42.988;20.338;2022-09-29T10:21:22;34.22;;;25.63;;
70592;SDS011;58294;42.988;20.338;2022-09-29T10:24:00;27.08;;;22.63;;
70592;SDS011;58294;42.988;20.338;2022-09-29T10:26:32;31.92;;;24.15;;
70592;SDS011;58294;42.988;20.338;2022-09-29T10:29:32;27.13;;;19.35;;
70592;SDS011;58294;42.988;20.338;2022-09-29T10:32:01;36.53;;;26.38;;
70592;SDS011;58294;42.988;20.338;2022-09-29T10:34:31;13.98;;;11.50;;
70592;SDS011;58294;42.988;20.338;2022-09-29T10:37:00;25.67;;;18.95;;
70592;SDS011;58294;42.988;20.338;2022-09-29T10:39:32;23.30;;;16.65;;
70592;SDS011;58294;42.988;20.338;2022-09-29T10:42:23;19.25;;;12.63;;
70592;SDS011;58294;42.988;20.338;2022-09-29T10:47:38;5.45;;;3.70;;
70592;SDS011;58294;42.988;20.338;2022-09-29T10:55:25;9.85;;;5.63;;
70592;SDS011;58294;42.988;20.338;2022-09-29T10:57:53;16.20;;;9.40;;
70592;SDS011;58294;42.988;20.338;2022-09-29T11:00:27;16.10;;;8.60;;
70592;SDS011;58294;42.988;20.338;2022-09-29T11:03:06;15.88;;;8.23;;
70592;SDS011;58294;42.988;20.338;2022-09-29T11:06:05;11.52;;;5.75;;
70592;SDS011;58294;42.988;20.338;2022-09-29T11:14:30;8.00;;;4.97;;
70592;SDS011;58294;42.988;20.338;2022-09-29T11:17:18;18.13;;;6.63;;
70592;SDS011;58294;42.988;20.338;2022-09-29T11:19:44;8.63;;;4.60;;
70592;SDS011;58294;42.988;20.338;2022-09-29T11:25:02;9.00;;;4.40;;
70592;SDS011;58294;42.988;20.338;2022-09-29T11:36:26;2.63;;;2.03;;
70592;SDS011;58294;42.988;20.338;2022-09-29T11:39:27;2.80;;;2.38;;
70592;SDS011;58294;42.988;20.338;2022-09-29T11:42:16;3.05;;;1.80;;
70592;SDS011;58294;42.988;20.338;2022-09-29T11:44:59;2.75;;;1.70;;
70592;SDS011;58294;42.988;20.338;2022-09-29T11:56:13;2.90;;;2.40;;
70592;SDS011;58294;42.988;20.338;2022-09-29T11:58:49;5.78;;;5.03;;
70592;SDS011;58294;42.988;20.338;2022-09-29T12:04:35;2.97;;;2.45;;
70592;SDS011;58294;42.988;20.338;2022-09-29T12:10:04;7.38;;;5.10;;
70592;SDS011;58294;42.988;20.338;2022-09-29T12:18:18;4.68;;;2.85;;
70592;SDS011;58294;42.988;20.338;2022-09-29T12:20:49;8.55;;;3.35;;
70592;SDS011;58294;42.988;20.338;2022-09-29T12:23:19;5.15;;;4.03;;
70592;SDS011;58294;42.988;20.338;2022-09-29T12:28:41;4.25;;;2.88;;
70592;SDS011;58294;42.988;20.338;2022-09-29T12:31:47;6.97;;;3.70;;
70592;SDS011;58294;42.988;20.338;2022-09-29T12:42:40;4.07;;;1.77;;
70592;SDS011;58294;42.988;20.338;2022-09-29T12:51:29;2.15;;;1.83;;
70592;SDS011;58294;42.988;20.338;2022-09-29T12:56:39;2.30;;;1.60;;
70592;SDS011;58294;42.988;20.338;2022-09-29T13:02:16;3.47;;;2.92;;
70592;SDS011;58294;42.988;20.338;2022-09-29T13:07:31;1.60;;;1.50;;
70592;SDS011;58294;42.988;20.338;2022-09-29T13:20:45;3.08;;;1.90;;
70592;SDS011;58294;42.988;20.338;2022-09-29T13:28:43;7.13;;;4.82;;
70592;SDS011;58294;42.988;20.338;2022-09-29T13:31:19;3.35;;;2.72;;
70592;SDS011;58294;42.988;20.338;2022-09-29T13:33:53;5.82;;;5.20;;
70592;SDS011;58294;42.988;20.338;2022-09-29T13:36:25;5.95;;;5.00;;
70592;SDS011;58294;42.988;20.338;2022-09-29T13:38:55;5.97;;;4.50;;
70592;SDS011;58294;42.988;20.338;2022-09-29T13:54:27;8.70;;;5.57;;
70592;SDS011;58294;42.988;20.338;2022-09-29T14:07:48;5.47;;;3.92;;
70592;SDS011;58294;42.988;20.338;2022-09-29T14:13:22;4.90;;;2.35;;
70592;SDS011;58294;42.988;20.338;2022-09-29T14:18:54;6.15;;;3.95;;
70592;SDS011;58294;42.988;20.338;2022-09-29T14:22:47;8.10;;;5.30;;
70592;SDS011;58294;42.988;20.338;2022-09-29T14:32:58;3.50;;;2.42;;
70592;SDS011;58294;42.988;20.338;2022-09-29T14:38:27;13.50;;;11.63;;
70592;SDS011;58294;42.988;20.338;2022-09-29T14:41:13;5.30;;;3.13;;
70592;SDS011;58294;42.988;20.338;2022-09-29T14:44:10;2.60;;;2.00;;
70592;SDS011;58294;42.988;20.338;2022-09-29T14:47:00;2.50;;;2.15;;
70592;SDS011;58294;42.988;20.338;2022-09-29T14:50:02;5.47;;;3.08;;
70592;SDS011;58294;42.988;20.338;2022-09-29T14:53:15;4.38;;;2.53;;
70592;SDS011;58294;42.988;20.338;2022-09-29T15:01:30;2.53;;;2.33;;
70592;SDS011;58294;42.988;20.338;2022-09-29T15:04:06;4.80;;;3.13;;
70592;SDS011;58294;42.988;20.338;2022-09-29T15:06:44;7.18;;;3.78;;
70592;SDS011;58294;42.988;20.338;2022-09-29T15:09:21;2.40;;;2.20;;
70592;SDS011;58294;42.988;20.338;2022-09-29T15:11:53;3.15;;;2.20;;
70592;SDS011;58294;42.988;20.338;2022-09-29T15:14:23;1.88;;;1.60;;
70592;SDS011;58294;42.988;20.338;2022-09-29T15:19:57;4.18;;;1.92;;
70592;SDS011;58294;42.988;20.338;2022-09-29T15:22:39;6.70;;;2.15;;
70592;SDS011;58294;42.988;20.338;2022-09-29T15:25:31;3.45;;;2.10;;
70592;SDS011;58294;42.988;20.338;2022-09-29T15:28:02;2.20;;;1.65;;
70592;SDS011;58294;42.988;20.338;2022-09-29T15:30:43;3.83;;;2.50;;
70592;SDS011;58294;42.988;20.338;2022-09-29T15:36:04;4.80;;;2.90;;
70592;SDS011;58294;42.988;20.338;2022-09-29T15:38:38;5.47;;;4.57;;
70592;SDS011;58294;42.988;20.338;2022-09-29T15:43:41;4.30;;;3.47;;
70592;SDS011;58294;42.988;20.338;2022-09-29T15:46:16;6.85;;;3.30;;
70592;SDS011;58294;42.988;20.338;2022-09-29T15:51:34;7.93;;;3.60;;
70592;SDS011;58294;42.988;20.338;2022-09-29T15:54:01;11.95;;;6.53;;
70592;SDS011;58294;42.988;20.338;2022-09-29T15:56:34;7.27;;;4.27;;
70592;SDS011;58294;42.988;20.338;2022-09-29T16:02:37;16.02;;;9.57;;
70592;SDS011;58294;42.988;20.338;2022-09-29T16:05:10;14.32;;;11.23;;
70592;SDS011;58294;42.988;20.338;2022-09-29T16:07:40;18.15;;;12.00;;
70592;SDS011;58294;42.988;20.338;2022-09-29T16:10:19;11.43;;;9.43;;
70592;SDS011;58294;42.988;20.338;2022-09-29T16:12:53;40.50;;;28.73;;
70592;SDS011;58294;42.988;20.338;2022-09-29T16:17:51;41.55;;;24.90;;
70592;SDS011;58294;42.988;20.338;2022-09-29T16:20:35;17.63;;;12.93;;
70592;SDS011;58294;42.988;20.338;2022-09-29T16:23:05;26.57;;;15.20;;
70592;SDS011;58294;42.988;20.338;2022-09-29T16:25:32;22.10;;;15.02;;
70592;SDS011;58294;42.988;20.338;2022-09-29T16:27:59;13.15;;;10.95;;
70592;SDS011;58294;42.988;20.338;2022-09-29T16:30:33;15.38;;;10.50;;
70592;SDS011;58294;42.988;20.338;2022-09-29T16:33:13;33.03;;;23.17;;
70592;SDS011;58294;42.988;20.338;2022-09-29T16:35:45;42.60;;;32.40;;
70592;SDS011;58294;42.988;20.338;2022-09-29T16:38:19;26.13;;;13.02;;
70592;SDS011;58294;42.988;20.338;2022-09-29T16:40:58;11.30;;;7.65;;
70592;SDS011;58294;42.988;20.338;2022-09-29T16:43:25;13.63;;;7.75;;
70592;SDS011;58294;42.988;20.338;2022-09-29T16:45:58;13.82;;;9.60;;
70592;SDS011;58294;42.988;20.338;2022-09-29T16:48:27;15.88;;;10.98;;
70592;SDS011;58294;42.988;20.338;2022-09-29T16:50:55;20.02;;;10.68;;
70592;SDS011;58294;42.988;20.338;2022-09-29T16:55:55;20.27;;;9.88;;
70592;SDS011;58294;42.988;20.338;2022-09-29T16:58:22;22.35;;;13.30;;
70592;SDS011;58294;42.988;20.338;2022-09-29T17:00:50;19.17;;;14.15;;
70592;SDS011;58294;42.988;20.338;2022-09-29T17:03:16;19.77;;;14.30;;
70592;SDS011;58294;42.988;20.338;2022-09-29T17:05:43;18.02;;;8.23;;
70592;SDS011;58294;42.988;20.338;2022-09-29T17:08:14;19.30;;;13.43;;
70592;SDS011;58294;42.988;20.338;2022-09-29T17:11:01;12.98;;;5.90;;
70592;SDS011;58294;42.988;20.338;2022-09-29T17:13:32;14.75;;;9.82;;
70592;SDS011;58294;42.988;20.338;2022-09-29T17:15:59;17.83;;;8.85;;
70592;SDS011;58294;42.988;20.338;2022-09-29T17:18:26;17.58;;;12.23;;
70592;SDS011;58294;42.988;20.338;2022-09-29T17:20:53;24.85;;;13.98;;
70592;SDS011;58294;42.988;20.338;2022-09-29T17:23:19;18.10;;;10.38;;
70592;SDS011;58294;42.988;20.338;2022-09-29T17:25:45;28.02;;;18.00;;
70592;SDS011;58294;42.988;20.338;2022-09-29T17:28:13;16.77;;;7.25;;
70592;SDS011;58294;42.988;20.338;2022-09-29T17:30:42;26.83;;;19.70;;
70592;SDS011;58294;42.988;20.338;2022-09-29T17:33:11;26.25;;;20.15;;
70592;SDS011;58294;42.988;20.338;2022-09-29T17:35:40;21.77;;;12.75;;
70592;SDS011;58294;42.988;20.338;2022-09-29T17:38:09;86.22;;;67.55;;
70592;SDS011;58294;42.988;20.338;2022-09-29T17:43:17;40.42;;;23.58;;
70592;SDS011;58294;42.988;20.338;2022-09-29T17:45:44;43.33;;;27.92;;
70592;SDS011;58294;42.988;20.338;2022-09-29T17:48:10;89.53;;;69.78;;
70592;SDS011;58294;42.988;20.338;2022-09-29T17:50:38;66.30;;;55.22;;
70592;SDS011;58294;42.988;20.338;2022-09-29T17:53:15;31.83;;;23.23;;
70592;SDS011;58294;42.988;20.338;2022-09-29T17:55:46;39.50;;;28.92;;
70592;SDS011;58294;42.988;20.338;2022-09-29T17:58:14;44.17;;;30.17;;
70592;SDS011;58294;42.988;20.338;2022-09-29T18:00:42;37.55;;;27.33;;
70592;SDS011;58294;42.988;20.338;2022-09-29T18:03:13;44.00;;;28.70;;
70592;SDS011;58294;42.988;20.338;2022-09-29T18:05:41;47.67;;;35.63;;
70592;SDS011;58294;42.988;20.338;2022-09-29T18:08:10;56.85;;;47.65;;
70592;SDS011;58294;42.988;20.338;2022-09-29T18:13:12;98.97;;;80.03;;
70592;SDS011;58294;42.988;20.338;2022-09-29T18:15:38;99.82;;;88.38;;